Time;durP1;ratioP1;P1;durP2;ratioP2;P2;SDS_P1;SDS_P2;PMS_P1;PMS_P2;Temp;Humidity;BMP_temperature;BMP_pressure;BME280_temperature;BME280_humidity;BME280_pressure;Samples;Min_cycle;Max_cycle;Signal;HPM_P1;HPM_P2
2021/07/31 00:00:47;;;;;;;7.93;7.23;;;24.40;39.80;;;;;;5091687;28;20239;-64
2021/07/31 00:03:13;;;;;;;8.23;7.53;;;24.40;39.80;;;;;;5090942;28;20612;-65
2021/07/31 00:05:38;;;;;;;8.30;7.60;;;24.40;39.80;;;;;;5090714;28;20255;-65
2021/07/31 00:08:04;;;;;;;6.87;6.27;;;24.40;39.80;;;;;;5091555;28;20753;-64
2021/07/31 00:10:30;;;;;;;8.47;7.87;;;24.40;39.70;;;;;;5090950;28;20225;-64
2021/07/31 00:12:55;;;;;;;8.23;7.53;;;24.40;39.70;;;;;;5090832;28;20175;-64
2021/07/31 00:15:21;;;;;;;7.63;7.13;;;24.40;39.80;;;;;;5090847;28;20179;-65
2021/07/31 00:17:46;;;;;;;7.43;6.83;;;24.40;39.70;;;;;;5091005;28;20236;-64
2021/07/31 00:20:12;;;;;;;7.77;6.97;;;24.40;39.70;;;;;;5090207;28;20195;-65
2021/07/31 00:22:37;;;;;;;7.43;6.90;;;24.40;39.70;;;;;;5091052;28;20195;-65
2021/07/31 00:25:03;;;;;;;8.00;7.40;;;24.40;39.70;;;;;;5090640;28;20170;-65
2021/07/31 00:27:29;;;;;;;6.93;6.43;;;24.40;40.30;;;;;;5090446;28;20191;-64
2021/07/31 00:29:54;;;;;;;7.30;6.80;;;24.40;39.60;;;;;;5090623;28;20685;-65
2021/07/31 00:32:20;;;;;;;6.70;6.20;;;24.30;39.40;;;;;;5089756;28;20174;-65
2021/07/31 00:34:46;;;;;;;6.90;6.40;;;24.40;39.40;;;;;;5090083;28;20169;-64
2021/07/31 00:37:11;;;;;;;7.00;6.40;;;24.40;39.30;;;;;;5090871;28;20166;-64
2021/07/31 00:39:40;;;;;;;6.63;6.10;;;24.30;39.20;;;;;;5090560;28;20191;-65
2021/07/31 00:42:07;;;;;;;7.27;6.67;;;24.30;39.10;;;;;;5090588;28;20253;-65
2021/07/31 00:44:33;;;;;;;6.60;5.80;;;24.30;39.10;;;;;;5090456;28;20796;-64
2021/07/31 00:46:59;;;;;;;6.30;5.80;;;24.30;39.00;;;;;;5090426;28;20405;-65
2021/07/31 00:49:25;;;;;;;6.87;6.17;;;24.30;38.90;;;;;;5090126;28;20464;-64
2021/07/31 00:51:51;;;;;;;6.50;6.00;;;24.30;39.00;;;;;;5090537;28;20634;-63
2021/07/31 00:54:16;;;;;;;6.63;6.03;;;24.30;39.10;;;;;;5090526;28;20498;-64
2021/07/31 00:56:43;;;;;;;6.47;5.97;;;24.30;39.00;;;;;;5090239;28;20216;-64
2021/07/31 00:59:10;;;;;;;6.07;5.67;;;24.30;39.10;;;;;;5090353;28;20191;-65
2021/07/31 01:01:36;;;;;;;6.80;6.30;;;24.30;39.00;;;;;;5090244;28;20448;-65
2021/07/31 01:04:01;;;;;;;6.77;6.27;;;24.30;38.90;;;;;;5089970;28;20444;-65
2021/07/31 01:06:27;;;;;;;6.20;5.80;;;24.30;38.90;;;;;;5090129;28;20261;-65
2021/07/31 01:08:52;;;;;;;5.40;5.10;;;24.30;38.90;;;;;;5090449;28;20305;-64
2021/07/31 01:11:18;;;;;;;6.03;5.63;;;24.30;38.90;;;;;;5094124;28;20549;-65
2021/07/31 01:13:45;;;;;;;5.83;5.43;;;24.30;39.00;;;;;;5094369;28;20262;-65
2021/07/31 01:16:11;;;;;;;6.17;5.67;;;24.30;38.90;;;;;;5094206;28;20823;-64
2021/07/31 01:18:37;;;;;;;6.70;6.10;;;24.30;38.90;;;;;;5093885;28;20489;-65
2021/07/31 01:21:03;;;;;;;5.43;5.00;;;24.30;38.90;;;;;;5093022;28;20540;-64
2021/07/31 01:23:29;;;;;;;5.97;5.57;;;24.30;38.80;;;;;;5094209;28;20417;-64
2021/07/31 01:25:55;;;;;;;5.63;5.13;;;24.30;38.70;;;;;;5093881;28;20481;-65
2021/07/31 01:28:21;;;;;;;5.50;4.70;;;24.30;38.70;;;;;;5093940;28;20757;-64
2021/07/31 01:30:47;;;;;;;5.57;5.17;;;24.30;38.70;;;;;;5094060;28;20401;-65
2021/07/31 01:33:12;;;;;;;6.73;6.13;;;24.30;38.60;;;;;;5093709;28;20962;-64
2021/07/31 01:35:38;;;;;;;5.40;5.00;;;24.30;38.50;;;;;;5093667;28;20171;-64
2021/07/31 01:38:04;;;;;;;4.90;4.60;;;24.30;38.50;;;;;;5094173;28;20550;-64
2021/07/31 01:40:30;;;;;;;5.47;5.10;;;24.30;39.10;;;;;;5093533;28;20526;-64
2021/07/31 01:42:59;;;;;;;5.20;4.90;;;24.30;38.40;;;;;;5094138;28;20223;-64
2021/07/31 01:45:26;;;;;;;5.17;4.77;;;24.30;38.30;;;;;;5093727;28;20634;-64
2021/07/31 01:47:51;;;;;;;5.63;5.23;;;24.30;38.30;;;;;;5093486;28;20471;-65
2021/07/31 01:50:17;;;;;;;4.80;4.50;;;24.20;38.20;;;;;;5094300;28;20424;-64
2021/07/31 01:52:46;;;;;;;4.03;3.60;;;24.30;38.20;;;;;;5094192;28;20228;-64
2021/07/31 01:55:12;;;;;;;4.73;4.33;;;24.30;38.20;;;;;;5093648;28;20461;-64
2021/07/31 01:57:38;;;;;;;5.27;4.87;;;24.20;38.10;;;;;;5093469;28;20412;-65
2021/07/31 02:00:05;;;;;;;4.70;4.30;;;24.20;38.10;;;;;;5093908;28;20490;-65
2021/07/31 02:02:30;;;;;;;5.00;4.63;;;24.20;38.00;;;;;;5093463;28;20185;-64
2021/07/31 02:04:56;;;;;;;5.10;4.67;;;24.20;37.90;;;;;;5093645;28;20416;-65
2021/07/31 02:07:22;;;;;;;3.87;3.67;;;24.20;37.80;;;;;;5093537;28;20182;-65
2021/07/31 02:09:48;;;;;;;5.13;4.53;;;24.20;37.60;;;;;;5093275;28;20248;-65
2021/07/31 02:12:13;;;;;;;4.27;3.87;;;24.20;37.50;;;;;;5093559;28;20230;-64
2021/07/31 02:14:39;;;;;;;4.20;3.90;;;24.20;37.30;;;;;;5093401;28;20179;-65
2021/07/31 02:17:05;;;;;;;4.27;3.97;;;24.20;37.20;;;;;;5093191;28;20182;-65
2021/07/31 02:19:30;;;;;;;4.00;3.70;;;24.20;37.10;;;;;;5093047;28;20194;-65
2021/07/31 02:21:57;;;;;;;4.07;3.77;;;24.20;36.90;;;;;;5092761;28;20250;-65
2021/07/31 02:24:22;;;;;;;4.63;4.10;;;24.20;36.80;;;;;;5092741;28;20315;-65
2021/07/31 02:26:48;;;;;;;3.90;3.60;;;24.20;36.60;;;;;;5092978;28;20492;-65
2021/07/31 02:29:14;;;;;;;3.60;3.40;;;24.20;36.50;;;;;;5092833;28;20206;-64
2021/07/31 02:31:39;;;;;;;4.93;3.70;;;24.20;36.60;;;;;;5092934;28;20171;-64
2021/07/31 02:34:05;;;;;;;4.07;3.77;;;24.20;36.40;;;;;;5093244;28;20400;-64
2021/07/31 02:36:30;;;;;;;3.93;3.57;;;24.20;36.30;;;;;;5092691;28;20170;-65
2021/07/31 02:38:56;;;;;;;3.53;3.33;;;24.20;36.20;;;;;;5093220;28;20673;-65
2021/07/31 02:41:22;;;;;;;3.50;3.20;;;24.20;36.10;;;;;;5093393;28;20587;-64
2021/07/31 02:43:47;;;;;;;3.40;3.20;;;24.20;35.90;;;;;;5092758;28;20665;-64
2021/07/31 02:46:13;;;;;;;4.20;3.87;;;24.20;35.80;;;;;;5092601;28;20821;-64
2021/07/31 02:48:38;;;;;;;3.53;3.23;;;24.20;35.70;;;;;;5092359;28;20267;-64
2021/07/31 02:51:09;;;;;;;3.10;2.90;;;24.20;35.70;;;;;;5092773;28;20173;-64
2021/07/31 02:53:35;;;;;;;4.30;3.90;;;24.20;35.60;;;;;;5091912;28;20605;-63
2021/07/31 02:56:01;;;;;;;3.43;3.23;;;24.20;35.40;;;;;;5092409;28;20408;-64
2021/07/31 02:58:26;;;;;;;5.43;3.30;;;24.20;35.40;;;;;;5092711;28;20462;-64
2021/07/31 03:00:52;;;;;;;4.50;3.10;;;24.10;35.10;;;;;;5092379;28;20543;-64
2021/07/31 03:03:18;;;;;;;3.03;2.83;;;24.10;35.00;;;;;;5092733;28;20185;-64
2021/07/31 03:05:53;;;;;;;3.40;2.83;;;24.10;34.90;;;;;;5092332;28;20182;-64
2021/07/31 03:08:18;;;;;;;4.97;3.00;;;24.10;34.90;;;;;;5092088;28;20281;-65
2021/07/31 03:10:44;;;;;;;4.00;3.60;;;24.10;34.80;;;;;;5092230;28;20488;-65
2021/07/31 03:13:09;;;;;;;3.60;3.10;;;24.10;34.80;;;;;;5092340;28;20637;-64
2021/07/31 03:15:35;;;;;;;2.90;2.47;;;24.10;34.70;;;;;;5091805;28;20210;-65
2021/07/31 03:18:00;;;;;;;3.03;2.83;;;24.10;34.60;;;;;;5091819;28;20200;-65
2021/07/31 03:20:26;;;;;;;3.03;2.83;;;24.10;34.50;;;;;;5090810;28;20191;-65
2021/07/31 03:22:51;;;;;;;3.83;3.10;;;24.10;34.50;;;;;;5091885;28;20201;-65
2021/07/31 03:25:17;;;;;;;3.40;3.13;;;24.10;34.40;;;;;;5091402;28;20182;-65
2021/07/31 03:27:42;;;;;;;3.60;3.23;;;24.10;35.20;;;;;;5091521;28;20683;-64
2021/07/31 03:30:09;;;;;;;3.20;2.87;;;24.10;34.50;;;;;;5092214;28;20197;-64
2021/07/31 03:32:35;;;;;;;2.80;2.60;;;24.10;34.50;;;;;;5090837;28;20600;-65
2021/07/31 03:35:01;;;;;;;3.00;2.80;;;24.10;34.50;;;;;;5091604;28;20413;-64
2021/07/31 03:37:27;;;;;;;2.90;2.63;;;24.10;34.50;;;;;;5091833;28;20565;-65
2021/07/31 03:39:52;;;;;;;2.80;2.60;;;24.10;34.50;;;;;;5091358;28;20194;-65
2021/07/31 03:42:18;;;;;;;3.37;2.80;;;24.10;34.50;;;;;;5091917;28;20174;-65
2021/07/31 03:44:43;;;;;;;3.00;2.80;;;24.10;34.50;;;;;;5091198;28;20183;-64
2021/07/31 03:47:09;;;;;;;3.17;2.80;;;24.10;34.50;;;;;;5091048;28;20191;-64
2021/07/31 03:49:34;;;;;;;3.27;3.00;;;24.10;34.50;;;;;;5091380;28;20283;-64
2021/07/31 03:52:00;;;;;;;3.27;2.97;;;24.10;34.40;;;;;;5091292;28;20236;-64
2021/07/31 03:54:25;;;;;;;3.20;2.50;;;24.10;34.50;;;;;;5090916;28;20178;-64
2021/07/31 03:56:51;;;;;;;4.10;3.70;;;24.00;34.30;;;;;;5091639;28;20171;-64
2021/07/31 03:59:16;;;;;;;3.13;2.93;;;24.10;34.50;;;;;;5091825;28;20199;-64
2021/07/31 04:01:42;;;;;;;2.97;2.77;;;24.10;34.50;;;;;;5090752;28;20203;-64
2021/07/31 04:04:08;;;;;;;3.03;2.73;;;24.10;34.40;;;;;;5091349;28;20183;-64
2021/07/31 04:06:33;;;;;;;3.80;3.10;;;24.10;34.30;;;;;;5090782;28;20457;-64
2021/07/31 04:08:59;;;;;;;2.60;2.40;;;24.10;34.30;;;;;;5090841;28;20211;-64
2021/07/31 04:11:24;;;;;;;4.07;2.83;;;24.00;34.10;;;;;;5091009;28;20736;-64
2021/07/31 04:13:50;;;;;;;2.60;2.40;;;24.00;34.00;;;;;;5090798;28;20196;-65
2021/07/31 04:16:15;;;;;;;3.77;3.07;;;24.00;33.90;;;;;;5090404;28;20703;-65
2021/07/31 04:18:41;;;;;;;2.47;2.30;;;24.00;34.00;;;;;;5090739;28;20277;-65
2021/07/31 04:21:08;;;;;;;3.40;2.50;;;24.00;34.10;;;;;;5090689;28;20181;-64
2021/07/31 04:23:35;;;;;;;2.83;2.63;;;24.00;34.20;;;;;;5090700;28;20183;-65
2021/07/31 04:26:12;;;;;;;4.27;2.77;;;24.00;34.10;;;;;;5090443;28;20413;-64
2021/07/31 04:28:37;;;;;;;4.33;2.40;;;24.10;33.50;;;;;;5089177;28;20459;-64
2021/07/31 04:31:13;;;;;;;2.53;2.33;;;24.10;33.40;;;;;;5090307;28;20421;-65
2021/07/31 04:33:40;;;;;;;2.37;2.27;;;24.00;32.90;;;;;;5090607;28;20183;-64
2021/07/31 04:36:06;;;;;;;5.90;2.30;;;24.00;32.70;;;;;;5090474;28;20413;-64
2021/07/31 04:38:32;;;;;;;2.10;2.00;;;24.00;32.20;;;;;;5090011;28;20420;-65
2021/07/31 04:40:58;;;;;;;4.60;2.60;;;24.00;32.10;;;;;;5090434;28;20487;-65
2021/07/31 04:43:24;;;;;;;3.30;2.50;;;24.00;32.00;;;;;;5090319;28;20507;-65
2021/07/31 04:45:50;;;;;;;2.20;2.07;;;24.00;32.10;;;;;;5088939;28;20186;-64
2021/07/31 04:48:15;;;;;;;3.03;2.70;;;24.00;32.30;;;;;;5090250;28;20468;-64
2021/07/31 04:50:41;;;;;;;2.50;2.30;;;24.00;32.40;;;;;;5090196;28;20216;-64
2021/07/31 04:53:06;;;;;;;2.90;2.23;;;24.00;32.50;;;;;;5089994;28;20171;-65
2021/07/31 04:55:32;;;;;;;2.80;2.33;;;24.00;32.40;;;;;;5090108;28;20239;-64
2021/07/31 04:57:57;;;;;;;2.10;2.00;;;24.00;32.30;;;;;;5090161;28;20178;-65
2021/07/31 05:00:23;;;;;;;2.20;2.03;;;23.90;32.10;;;;;;5089961;28;20229;-65
2021/07/31 05:02:48;;;;;;;2.63;2.43;;;24.00;32.10;;;;;;5090380;28;20189;-65
2021/07/31 05:05:14;;;;;;;2.77;2.57;;;24.00;31.90;;;;;;5090057;28;20190;-65
2021/07/31 05:07:39;;;;;;;2.80;1.90;;;24.00;31.70;;;;;;5089738;28;20194;-63
2021/07/31 05:10:06;;;;;;;3.67;2.10;;;24.00;31.70;;;;;;5090009;28;20197;-64
2021/07/31 05:12:31;;;;;;;3.13;2.20;;;24.00;31.60;;;;;;5090109;28;20175;-64
2021/07/31 05:14:57;;;;;;;3.77;2.30;;;24.00;31.50;;;;;;5089757;28;20964;-64
2021/07/31 05:17:22;;;;;;;4.87;2.60;;;24.00;31.50;;;;;;5090215;28;20701;-64
2021/07/31 05:19:48;;;;;;;3.63;2.20;;;24.00;32.30;;;;;;5089900;28;20281;-63
2021/07/31 05:22:15;;;;;;;4.77;2.53;;;23.90;31.30;;;;;;5089701;28;20228;-64
2021/07/31 05:24:41;;;;;;;2.37;2.17;;;24.00;31.30;;;;;;5089983;28;20412;-64
2021/07/31 05:27:07;;;;;;;4.43;2.23;;;23.90;31.10;;;;;;5089655;28;20405;-66
2021/07/31 05:29:33;;;;;;;6.70;3.30;;;24.00;31.40;;;;;;5089561;28;20501;-66
2021/07/31 05:31:58;;;;;;;2.50;2.30;;;24.00;31.60;;;;;;5089850;28;20361;-66
2021/07/31 05:34:24;;;;;;;2.53;2.27;;;24.00;31.60;;;;;;5089527;28;21160;-66
2021/07/31 05:36:49;;;;;;;2.73;2.10;;;24.00;31.70;;;;;;5089001;28;20173;-64
2021/07/31 05:39:15;;;;;;;2.63;2.20;;;24.00;31.70;;;;;;5089826;28;20199;-64
2021/07/31 05:41:41;;;;;;;4.33;2.63;;;24.00;31.70;;;;;;5089846;28;20696;-66
2021/07/31 05:44:06;;;;;;;2.87;2.20;;;24.00;31.70;;;;;;5089828;28;20175;-67
2021/07/31 05:46:32;;;;;;;5.67;2.20;;;24.00;31.60;;;;;;5089408;28;20262;-69
2021/07/31 05:48:57;;;;;;;5.70;2.60;;;24.00;31.60;;;;;;5089451;28;20295;-65
2021/07/31 05:51:23;;;;;;;5.20;2.43;;;24.00;31.70;;;;;;5090016;28;20167;-65
2021/07/31 05:53:48;;;;;;;3.47;2.00;;;24.00;31.30;;;;;;5089798;28;20201;-65
2021/07/31 05:56:15;;;;;;;3.13;2.00;;;24.00;30.90;;;;;;5092041;28;20432;-64
2021/07/31 05:58:40;;;;;;;5.17;2.40;;;24.00;30.80;;;;;;5094061;28;20202;-65
2021/07/31 06:01:07;;;;;;;3.40;2.07;;;24.00;30.70;;;;;;5093523;28;20400;-64
2021/07/31 06:03:33;;;;;;;2.83;2.00;;;24.00;30.70;;;;;;5093190;28;20178;-65
2021/07/31 06:05:59;;;;;;;4.70;2.60;;;24.00;30.50;;;;;;5093041;28;20790;-65
2021/07/31 06:08:25;;;;;;;5.40;2.50;;;24.00;30.30;;;;;;5093417;28;20456;-65
2021/07/31 06:10:50;;;;;;;4.63;2.03;;;23.90;30.10;;;;;;5093235;28;20186;-64
2021/07/31 06:13:16;;;;;;;2.97;2.30;;;23.90;29.60;;;;;;5093323;28;20170;-64
2021/07/31 06:15:42;;;;;;;3.03;2.03;;;23.90;29.50;;;;;;5092883;28;20651;-65
2021/07/31 06:18:09;;;;;;;2.63;2.30;;;23.90;29.40;;;;;;5093171;28;20250;-65
2021/07/31 06:20:35;;;;;;;2.63;2.40;;;23.80;29.30;;;;;;5092945;28;20938;-64
2021/07/31 06:23:01;;;;;;;2.87;2.20;;;23.90;29.20;;;;;;5093268;28;20415;-65
2021/07/31 06:25:26;;;;;;;3.13;2.10;;;23.80;29.30;;;;;;5092890;28;20182;-65
2021/07/31 06:27:55;;;;;;;2.90;2.50;;;23.80;29.40;;;;;;5092845;28;20460;-65
2021/07/31 06:30:21;;;;;;;2.40;2.20;;;23.80;29.20;;;;;;5092921;28;20191;-65
2021/07/31 06:32:48;;;;;;;3.10;2.30;;;23.80;29.30;;;;;;5092615;28;20901;-65
2021/07/31 06:35:14;;;;;;;2.73;2.33;;;23.70;29.00;;;;;;5092427;28;20244;-65
2021/07/31 06:37:40;;;;;;;2.60;2.40;;;23.70;29.10;;;;;;5092681;28;20413;-65
2021/07/31 06:40:07;;;;;;;2.80;1.90;;;23.70;28.90;;;;;;5092603;28;20429;-65
2021/07/31 06:42:32;;;;;;;2.40;2.20;;;23.70;29.00;;;;;;5092660;28;20280;-66
2021/07/31 06:44:58;;;;;;;3.00;2.30;;;23.70;28.80;;;;;;5093096;28;20423;-64
2021/07/31 06:47:23;;;;;;;2.83;2.40;;;23.70;28.90;;;;;;5092658;28;20261;-65
2021/07/31 06:49:49;;;;;;;2.30;2.10;;;23.60;28.90;;;;;;5092259;28;20324;-65
2021/07/31 06:52:16;;;;;;;2.57;1.90;;;23.70;28.90;;;;;;5092228;28;20519;-65
2021/07/31 06:54:41;;;;;;;3.23;2.20;;;23.70;29.00;;;;;;5092012;28;20751;-64
2021/07/31 06:57:10;;;;;;;5.87;2.20;;;23.70;29.20;;;;;;5092290;28;20405;-65
2021/07/31 06:59:37;;;;;;;3.30;2.37;;;23.70;29.30;;;;;;5092299;28;20277;-64
2021/07/31 07:02:02;;;;;;;2.70;2.33;;;23.70;29.40;;;;;;5092254;28;20864;-64
2021/07/31 07:04:28;;;;;;;2.53;2.03;;;23.70;29.40;;;;;;5092110;28;20437;-65
2021/07/31 07:06:54;;;;;;;2.30;2.13;;;23.70;29.50;;;;;;5092056;28;20167;-64
2021/07/31 07:09:19;;;;;;;4.50;2.50;;;23.70;29.70;;;;;;5091883;28;20218;-65
2021/07/31 07:11:45;;;;;;;10.80;2.33;;;23.80;29.90;;;;;;5092521;28;20561;-65
2021/07/31 07:14:10;;;;;;;3.90;2.60;;;23.80;30.00;;;;;;5091785;28;20632;-66
2021/07/31 07:16:36;;;;;;;4.70;2.97;;;23.80;30.20;;;;;;5091735;28;20223;-64
2021/07/31 07:19:01;;;;;;;11.33;3.63;;;23.80;30.50;;;;;;5091719;28;20199;-65
2021/07/31 07:21:27;;;;;;;6.57;2.87;;;23.80;30.80;;;;;;5091939;28;20175;-65
2021/07/31 07:23:52;;;;;;;3.80;2.80;;;23.80;30.80;;;;;;5091893;28;20175;-65
2021/07/31 07:26:18;;;;;;;5.43;2.70;;;23.80;31.10;;;;;;5091551;28;20189;-64
2021/07/31 07:28:44;;;;;;;3.80;2.50;;;23.80;31.30;;;;;;5091402;28;20198;-65
2021/07/31 07:31:13;;;;;;;3.83;2.77;;;23.80;31.40;;;;;;5091567;28;20198;-65
2021/07/31 07:33:40;;;;;;;7.23;3.00;;;23.80;31.60;;;;;;5091451;28;20232;-65
2021/07/31 07:36:13;;;;;;;4.27;2.60;;;23.80;31.70;;;;;;5091354;28;20407;-65
2021/07/31 07:38:39;;;;;;;3.20;2.83;;;23.90;31.90;;;;;;5091667;28;20914;-65
2021/07/31 07:41:06;;;;;;;3.27;2.60;;;23.90;32.00;;;;;;5091617;28;20566;-65
2021/07/31 07:43:32;;;;;;;3.93;3.07;;;23.90;32.70;;;;;;5091693;28;20409;-65
2021/07/31 07:45:57;;;;;;;4.20;2.77;;;23.90;32.10;;;;;;5091069;28;20983;-65
2021/07/31 07:48:23;;;;;;;3.77;2.70;;;23.90;32.10;;;;;;5091015;28;20228;-65
2021/07/31 07:50:48;;;;;;;4.00;2.20;;;23.90;32.20;;;;;;5091353;28;20167;-65
2021/07/31 07:53:14;;;;;;;5.20;2.70;;;23.90;32.20;;;;;;5091239;28;20181;-66
2021/07/31 07:55:39;;;;;;;5.23;3.40;;;24.00;32.30;;;;;;5090910;28;20257;-65
2021/07/31 07:58:09;;;;;;;3.23;2.47;;;23.90;32.20;;;;;;5091110;28;20258;-64
2021/07/31 08:00:35;;;;;;;5.40;2.97;;;24.00;32.30;;;;;;5090782;28;20684;-65
2021/07/31 08:03:01;;;;;;;2.83;2.60;;;24.00;32.40;;;;;;5091072;28;20405;-65
2021/07/31 08:05:27;;;;;;;3.57;2.43;;;24.00;32.50;;;;;;5090813;28;20744;-65
2021/07/31 08:07:52;;;;;;;2.73;2.30;;;24.00;32.60;;;;;;5090937;28;20463;-65
2021/07/31 08:10:18;;;;;;;4.30;2.53;;;24.00;32.60;;;;;;5090689;28;20231;-65
2021/07/31 08:12:44;;;;;;;3.07;2.70;;;24.00;32.60;;;;;;5090883;28;20177;-66
2021/07/31 08:15:10;;;;;;;7.90;2.97;;;24.00;32.60;;;;;;5090451;28;20178;-66
2021/07/31 08:17:36;;;;;;;3.17;2.50;;;24.00;32.60;;;;;;5090489;28;20526;-64
2021/07/31 08:20:03;;;;;;;3.70;2.70;;;24.00;32.70;;;;;;5090638;28;20431;-66
2021/07/31 08:22:28;;;;;;;4.73;2.73;;;24.00;32.70;;;;;;5090942;28;20409;-64
2021/07/31 08:24:54;;;;;;;3.40;2.73;;;24.00;32.70;;;;;;5090407;28;20887;-64
2021/07/31 08:27:20;;;;;;;2.60;2.33;;;24.00;33.40;;;;;;5090509;28;20174;-66
2021/07/31 08:29:45;;;;;;;2.90;2.33;;;24.00;32.80;;;;;;5090384;28;20180;-66
2021/07/31 08:32:11;;;;;;;5.40;2.67;;;24.10;32.90;;;;;;5090697;28;20174;-66
2021/07/31 08:34:36;;;;;;;3.30;2.97;;;24.10;32.90;;;;;;5090266;28;20171;-66
2021/07/31 08:37:03;;;;;;;3.20;2.90;;;24.00;32.80;;;;;;5091373;28;20167;-66
2021/07/31 08:39:29;;;;;;;3.37;2.37;;;24.10;32.80;;;;;;5090736;28;20677;-66
2021/07/31 08:41:55;;;;;;;2.30;2.20;;;24.10;32.90;;;;;;5090868;28;20413;-65
2021/07/31 08:44:20;;;;;;;4.17;2.70;;;24.10;32.90;;;;;;5090367;28;20404;-65
2021/07/31 08:46:50;;;;;;;4.00;2.73;;;24.10;32.90;;;;;;5090398;28;20170;-65
2021/07/31 08:49:19;;;;;;;3.93;2.40;;;24.10;32.90;;;;;;5090828;28;20203;-65
2021/07/31 08:51:46;;;;;;;2.20;2.10;;;24.10;32.90;;;;;;5090901;28;20416;-65
2021/07/31 08:54:12;;;;;;;3.43;2.70;;;24.10;33.00;;;;;;5090579;28;20470;-64
2021/07/31 08:56:43;;;;;;;4.23;2.70;;;24.10;32.90;;;;;;5090630;28;20910;-65
2021/07/31 08:59:09;;;;;;;3.73;2.57;;;24.10;33.00;;;;;;5090119;28;20672;-65
2021/07/31 09:01:35;;;;;;;2.93;2.47;;;24.10;33.10;;;;;;5089787;28;20409;-65
2021/07/31 09:04:12;;;;;;;2.57;2.30;;;24.10;33.10;;;;;;5090354;28;20413;-65
2021/07/31 09:06:37;;;;;;;2.40;2.10;;;24.10;32.90;;;;;;5090016;28;20224;-65
2021/07/31 09:09:03;;;;;;;3.13;2.47;;;24.10;33.10;;;;;;5089991;28;20978;-66
2021/07/31 09:11:29;;;;;;;2.70;2.50;;;24.10;33.10;;;;;;5090068;28;20243;-66
2021/07/31 09:14:12;;;;;;;2.50;2.30;;;24.10;33.20;;;;;;5088982;28;20570;-65
2021/07/31 09:16:39;;;;;;;2.53;2.23;;;24.10;33.20;;;;;;5089782;28;20408;-65
2021/07/31 09:19:07;;;;;;;3.83;2.40;;;24.10;33.30;;;;;;5090569;28;20831;-65
2021/07/31 09:21:33;;;;;;;2.57;2.37;;;24.10;33.40;;;;;;5089940;28;20408;-65
2021/07/31 09:23:58;;;;;;;3.20;2.60;;;24.10;33.40;;;;;;5090083;28;20413;-65
2021/07/31 09:26:30;;;;;;;2.67;2.47;;;24.10;33.50;;;;;;5089791;28;20413;-64
2021/07/31 09:28:58;;;;;;;3.77;2.43;;;24.10;33.40;;;;;;5090294;28;20217;-65
2021/07/31 09:31:24;;;;;;;2.80;2.60;;;24.10;33.50;;;;;;5092938;28;20844;-65
2021/07/31 09:33:50;;;;;;;2.43;2.23;;;24.10;33.40;;;;;;5093998;28;20404;-65
2021/07/31 09:36:16;;;;;;;2.43;2.33;;;24.10;33.50;;;;;;5093803;28;20181;-66
2021/07/31 09:38:44;;;;;;;2.90;2.50;;;24.10;33.40;;;;;;5093907;28;20424;-66
2021/07/31 09:41:34;;;;;;;3.13;2.20;;;24.10;33.40;;;;;;5093658;28;20904;-66
2021/07/31 09:44:07;;;;;;;2.60;2.40;;;24.10;33.50;;;;;;5093836;28;20404;-66
2021/07/31 09:46:47;;;;;;;2.50;2.30;;;24.10;33.40;;;;;;5094329;28;20432;-65
2021/07/31 09:49:13;;;;;;;2.30;2.20;;;24.10;33.40;;;;;;5094291;28;20487;-65
2021/07/31 09:51:41;;;;;;;2.80;2.50;;;24.10;33.50;;;;;;5093799;28;20405;-65
2021/07/31 09:54:11;;;;;;;2.20;2.00;;;24.10;33.40;;;;;;5093781;28;20405;-65
2021/07/31 09:56:41;;;;;;;3.20;2.30;;;24.10;33.40;;;;;;5093177;28;20452;-67
2021/07/31 09:59:08;;;;;;;2.80;2.60;;;24.10;33.50;;;;;;5093105;28;20506;-66
2021/07/31 10:01:43;;;;;;;2.20;2.10;;;24.10;33.40;;;;;;5093084;28;20413;-65
2021/07/31 10:04:09;;;;;;;2.20;2.00;;;24.10;33.40;;;;;;5093162;28;20404;-65
2021/07/31 10:06:35;;;;;;;3.23;2.40;;;24.10;33.40;;;;;;5093599;28;20491;-64
2021/07/31 10:09:06;;;;;;;3.20;2.17;;;24.10;33.50;;;;;;5093965;28;20542;-65
2021/07/31 10:11:33;;;;;;;3.33;2.43;;;24.10;34.20;;;;;;5093542;28;20162;-64
2021/07/31 10:14:00;;;;;;;2.20;2.10;;;24.10;33.40;;;;;;5094063;28;20405;-65
2021/07/31 10:16:26;;;;;;;2.37;2.17;;;24.10;34.20;;;;;;5075301;28;20409;-64
2021/07/31 10:19:03;;;;;;;2.10;2.00;;;24.10;33.50;;;;;;5093759;28;20436;-65
2021/07/31 10:21:31;;;;;;;2.40;2.20;;;24.10;33.50;;;;;;5093991;28;20180;-65
2021/07/31 10:24:01;;;;;;;3.40;2.40;;;24.10;33.40;;;;;;5093284;28;20401;-65
2021/07/31 10:26:28;;;;;;;2.90;2.70;;;24.10;33.40;;;;;;5092983;28;20416;-65
2021/07/31 10:28:54;;;;;;;2.70;2.10;;;24.10;33.40;;;;;;5093041;28;20460;-66
2021/07/31 10:31:32;;;;;;;2.07;1.97;;;24.10;33.40;;;;;;5092985;28;20488;-66
2021/07/31 10:33:58;;;;;;;2.07;1.97;;;24.10;33.40;;;;;;5093706;28;20411;-65
2021/07/31 10:36:39;;;;;;;2.40;2.30;;;24.10;33.40;;;;;;5093117;28;20400;-66
2021/07/31 10:39:39;;;;;;;2.60;2.40;;;24.10;33.40;;;;;;5093840;28;20432;-65
2021/07/31 10:42:05;;;;;;;2.40;2.30;;;24.20;33.50;;;;;;5092851;28;20428;-66
2021/07/31 10:44:30;;;;;;;2.93;1.60;;;24.10;33.40;;;;;;5091338;28;20417;-65
2021/07/31 10:47:21;;;;;;;1.90;1.80;;;24.10;33.40;;;;;;5092522;28;20181;-66
2021/07/31 10:49:47;;;;;;;3.07;2.67;;;24.20;33.60;;;;;;5092435;28;20206;-64
2021/07/31 10:52:50;;;;;;;2.70;2.50;;;24.20;33.50;;;;;;5092545;28;20396;-65
2021/07/31 10:55:16;;;;;;;2.63;2.43;;;24.20;33.50;;;;;;5092260;28;20404;-66
2021/07/31 10:57:53;;;;;;;2.60;2.40;;;24.20;33.50;;;;;;5092292;28;20401;-66
2021/07/31 11:00:28;;;;;;;2.60;2.17;;;24.20;33.50;;;;;;5092217;28;20210;-65
2021/07/31 11:02:55;;;;;;;2.93;2.27;;;24.20;33.60;;;;;;5090997;28;20409;-65
2021/07/31 11:05:22;;;;;;;2.10;2.00;;;24.20;33.50;;;;;;5092161;28;20834;-64
2021/07/31 11:07:56;;;;;;;2.30;2.10;;;24.10;33.40;;;;;;5092016;28;20540;-64
2021/07/31 11:10:43;;;;;;;2.40;2.30;;;24.10;33.40;;;;;;5091927;28;20471;-64
2021/07/31 11:13:32;;;;;;;2.50;2.33;;;24.20;33.50;;;;;;5092143;28;20777;-64
2021/07/31 11:16:04;;;;;;;1.90;1.80;;;24.20;33.60;;;;;;5091707;28;20421;-64
2021/07/31 11:18:35;;;;;;;2.00;1.90;;;24.20;33.50;;;;;;5091982;28;20409;-65
2021/07/31 11:21:12;;;;;;;2.00;1.90;;;24.20;33.50;;;;;;5092046;28;20852;-65
2021/07/31 11:23:42;;;;;;;2.80;2.50;;;24.20;33.60;;;;;;5092098;28;20400;-65
2021/07/31 11:26:08;;;;;;;2.10;2.00;;;24.20;33.50;;;;;;5091672;28;20966;-65
2021/07/31 11:28:36;;;;;;;2.90;1.93;;;24.20;33.50;;;;;;5091735;28;20526;-65
2021/07/31 11:31:14;;;;;;;2.40;2.30;;;24.20;33.50;;;;;;5091819;28;20173;-65
2021/07/31 11:33:40;;;;;;;2.60;2.27;;;24.20;33.60;;;;;;5092101;28;20413;-65
2021/07/31 11:36:14;;;;;;;2.40;2.13;;;24.20;33.50;;;;;;5091865;28;20591;-65
2021/07/31 11:38:41;;;;;;;2.03;1.80;;;24.20;33.60;;;;;;5091654;28;20816;-66
2021/07/31 11:41:12;;;;;;;2.30;2.10;;;24.20;33.50;;;;;;5092054;28;20404;-66
2021/07/31 11:44:07;;;;;;;1.90;1.80;;;24.20;33.50;;;;;;5091394;28;20459;-65
2021/07/31 11:46:37;;;;;;;2.20;1.90;;;24.20;33.50;;;;;;5086342;28;20420;-65
2021/07/31 11:49:06;;;;;;;2.03;1.93;;;24.20;33.50;;;;;;5091037;28;20539;-66
2021/07/31 11:51:32;;;;;;;1.83;1.73;;;24.20;33.50;;;;;;5091223;28;20785;-65
2021/07/31 11:54:05;;;;;;;2.33;2.23;;;24.30;33.60;;;;;;5090429;28;20476;-65
2021/07/31 11:56:31;;;;;;;2.80;2.00;;;24.30;33.60;;;;;;5090888;28;20495;-64
2021/07/31 11:58:58;;;;;;;1.70;1.60;;;24.30;33.60;;;;;;5091180;28;20437;-65
2021/07/31 12:01:24;;;;;;;2.40;2.20;;;24.30;33.70;;;;;;5091272;28;20400;-65
2021/07/31 12:03:51;;;;;;;2.73;2.53;;;24.30;33.70;;;;;;5090009;28;20776;-65
2021/07/31 12:06:44;;;;;;;1.90;1.80;;;24.30;34.40;;;;;;5090781;28;20465;-65
2021/07/31 12:09:20;;;;;;;2.13;2.03;;;24.30;33.60;;;;;;5091099;28;20535;-65
2021/07/31 12:11:47;;;;;;;2.40;2.00;;;24.30;33.70;;;;;;5090882;28;20782;-65
2021/07/31 12:14:34;;;;;;;2.00;1.90;;;24.20;33.50;;;;;;5091010;28;20412;-65
2021/07/31 12:17:23;;;;;;;3.13;2.40;;;24.20;33.50;;;;;;5090723;28;20409;-64
2021/07/31 12:19:57;;;;;;;2.40;2.20;;;24.20;33.50;;;;;;5090876;28;20436;-66
2021/07/31 12:22:28;;;;;;;2.90;2.40;;;24.20;33.50;;;;;;5090759;28;20409;-66
2021/07/31 12:25:14;;;;;;;2.07;1.97;;;24.20;33.50;;;;;;5089240;28;20448;-65
2021/07/31 12:28:06;;;;;;;2.00;1.90;;;24.20;33.50;;;;;;5090888;28;20412;-66
2021/07/31 12:30:34;;;;;;;1.90;1.80;;;24.20;33.50;;;;;;5090622;28;20424;-66
2021/07/31 12:33:01;;;;;;;2.30;2.20;;;24.20;33.50;;;;;;5090532;28;20420;-66
2021/07/31 12:35:30;;;;;;;2.40;2.30;;;24.20;33.60;;;;;;5090708;28;20780;-66
2021/07/31 12:37:56;;;;;;;2.23;2.13;;;24.20;33.50;;;;;;5090551;28;20412;-66
2021/07/31 12:40:22;;;;;;;2.23;2.13;;;24.20;34.30;;;;;;5090614;28;21084;-66
2021/07/31 12:42:47;;;;;;;2.50;2.30;;;24.20;33.50;;;;;;5090420;28;20547;-66
2021/07/31 12:45:13;;;;;;;2.57;2.40;;;24.20;33.50;;;;;;5090250;28;20171;-66
2021/07/31 12:47:39;;;;;;;2.07;1.97;;;24.20;33.50;;;;;;5090209;28;20190;-67
2021/07/31 12:50:05;;;;;;;2.10;1.97;;;24.20;33.50;;;;;;5090206;28;20429;-66